sensor_id;sensor_type;location;lat;lon;timestamp;P1;durP1;ratioP1;P2;durP2;ratioP2
71320;SDS011;59118;54.322;18.576;2022-12-11T00:00:03;58.00;;;23.10;;
71320;SDS011;59118;54.322;18.576;2022-12-11T00:02:30;69.10;;;24.70;;
71320;SDS011;59118;54.322;18.576;2022-12-11T00:05:00;67.28;;;24.38;;
71320;SDS011;59118;54.322;18.576;2022-12-11T00:07:26;63.35;;;22.33;;
71320;SDS011;59118;54.322;18.576;2022-12-11T00:09:53;63.65;;;22.08;;
71320;SDS011;59118;54.322;18.576;2022-12-11T00:12:19;59.70;;;24.00;;
71320;SDS011;59118;54.322;18.576;2022-12-11T00:14:46;67.55;;;25.85;;
71320;SDS011;59118;54.322;18.576;2022-12-11T00:17:12;68.32;;;25.13;;
71320;SDS011;59118;54.322;18.576;2022-12-11T00:19:39;74.18;;;26.17;;
71320;SDS011;59118;54.322;18.576;2022-12-11T00:22:05;66.57;;;24.33;;
71320;SDS011;59118;54.322;18.576;2022-12-11T00:24:33;64.27;;;24.53;;
71320;SDS011;59118;54.322;18.576;2022-12-11T00:26:59;66.60;;;23.55;;
71320;SDS011;59118;54.322;18.576;2022-12-11T00:29:26;66.80;;;23.83;;
71320;SDS011;59118;54.322;18.576;2022-12-11T00:31:53;67.10;;;25.48;;
71320;SDS011;59118;54.322;18.576;2022-12-11T00:34:19;66.90;;;24.35;;
71320;SDS011;59118;54.322;18.576;2022-12-11T00:36:46;73.33;;;24.83;;
71320;SDS011;59118;54.322;18.576;2022-12-11T00:39:13;63.85;;;24.42;;
71320;SDS011;59118;54.322;18.576;2022-12-11T00:41:39;67.13;;;25.83;;
71320;SDS011;59118;54.322;18.576;2022-12-11T00:44:07;68.10;;;24.08;;
71320;SDS011;59118;54.322;18.576;2022-12-11T00:46:34;74.70;;;24.88;;
71320;SDS011;59118;54.322;18.576;2022-12-11T00:49:00;70.93;;;23.53;;
71320;SDS011;59118;54.322;18.576;2022-12-11T00:51:27;64.28;;;23.65;;
71320;SDS011;59118;54.322;18.576;2022-12-11T00:53:53;68.47;;;25.33;;
71320;SDS011;59118;54.322;18.576;2022-12-11T00:56:20;64.07;;;24.35;;
71320;SDS011;59118;54.322;18.576;2022-12-11T00:58:47;64.20;;;23.85;;
71320;SDS011;59118;54.322;18.576;2022-12-11T01:01:19;67.53;;;24.97;;
71320;SDS011;59118;54.322;18.576;2022-12-11T01:03:47;75.45;;;25.73;;
71320;SDS011;59118;54.322;18.576;2022-12-11T01:06:15;76.10;;;28.95;;
71320;SDS011;59118;54.322;18.576;2022-12-11T01:08:43;68.05;;;24.70;;
71320;SDS011;59118;54.322;18.576;2022-12-11T01:11:12;76.25;;;26.48;;
71320;SDS011;59118;54.322;18.576;2022-12-11T01:13:40;73.33;;;24.90;;
71320;SDS011;59118;54.322;18.576;2022-12-11T01:16:11;71.60;;;25.92;;
71320;SDS011;59118;54.322;18.576;2022-12-11T01:18:39;71.32;;;26.35;;
71320;SDS011;59118;54.322;18.576;2022-12-11T01:21:10;72.85;;;26.38;;
71320;SDS011;59118;54.322;18.576;2022-12-11T01:23:38;61.92;;;23.00;;
71320;SDS011;59118;54.322;18.576;2022-12-11T01:26:09;79.00;;;27.47;;
71320;SDS011;59118;54.322;18.576;2022-12-11T01:28:40;73.20;;;27.60;;
71320;SDS011;59118;54.322;18.576;2022-12-11T01:31:08;77.22;;;30.83;;
71320;SDS011;59118;54.322;18.576;2022-12-11T01:33:35;82.85;;;28.60;;
71320;SDS011;59118;54.322;18.576;2022-12-11T01:36:08;78.75;;;28.25;;
71320;SDS011;59118;54.322;18.576;2022-12-11T01:38:34;86.10;;;29.57;;
71320;SDS011;59118;54.322;18.576;2022-12-11T01:41:01;77.40;;;28.88;;
71320;SDS011;59118;54.322;18.576;2022-12-11T01:43:28;89.03;;;30.88;;
71320;SDS011;59118;54.322;18.576;2022-12-11T01:45:54;87.07;;;29.75;;
71320;SDS011;59118;54.322;18.576;2022-12-11T01:48:22;81.15;;;28.27;;
71320;SDS011;59118;54.322;18.576;2022-12-11T01:50:51;75.33;;;28.73;;
71320;SDS011;59118;54.322;18.576;2022-12-11T01:53:21;78.55;;;27.60;;
71320;SDS011;59118;54.322;18.576;2022-12-11T01:55:50;77.13;;;29.80;;
71320;SDS011;59118;54.322;18.576;2022-12-11T01:58:19;76.97;;;28.42;;
71320;SDS011;59118;54.322;18.576;2022-12-11T02:00:47;75.10;;;27.42;;
71320;SDS011;59118;54.322;18.576;2022-12-11T02:03:13;75.03;;;28.93;;
71320;SDS011;59118;54.322;18.576;2022-12-11T02:05:40;77.75;;;27.08;;
71320;SDS011;59118;54.322;18.576;2022-12-11T02:08:06;73.72;;;26.25;;
71320;SDS011;59118;54.322;18.576;2022-12-11T02:10:43;79.75;;;28.02;;
71320;SDS011;59118;54.322;18.576;2022-12-11T02:13:30;74.72;;;28.27;;
71320;SDS011;59118;54.322;18.576;2022-12-11T02:18:59;65.68;;;24.90;;
71320;SDS011;59118;54.322;18.576;2022-12-11T02:21:31;64.60;;;24.98;;
71320;SDS011;59118;54.322;18.576;2022-12-11T02:27:13;62.20;;;23.52;;
71320;SDS011;59118;54.322;18.576;2022-12-11T02:29:53;62.27;;;23.27;;
71320;SDS011;59118;54.322;18.576;2022-12-11T02:35:32;63.67;;;23.33;;
71320;SDS011;59118;54.322;18.576;2022-12-11T02:38:02;61.80;;;21.98;;
71320;SDS011;59118;54.322;18.576;2022-12-11T02:40:31;55.13;;;21.13;;
71320;SDS011;59118;54.322;18.576;2022-12-11T02:43:00;62.10;;;24.03;;
71320;SDS011;59118;54.322;18.576;2022-12-11T02:45:29;63.58;;;23.15;;
71320;SDS011;59118;54.322;18.576;2022-12-11T02:47:57;56.72;;;21.83;;
71320;SDS011;59118;54.322;18.576;2022-12-11T02:50:25;62.67;;;24.40;;
71320;SDS011;59118;54.322;18.576;2022-12-11T02:52:52;66.57;;;24.05;;
71320;SDS011;59118;54.322;18.576;2022-12-11T02:55:22;66.23;;;25.87;;
71320;SDS011;59118;54.322;18.576;2022-12-11T02:57:51;57.22;;;21.60;;
71320;SDS011;59118;54.322;18.576;2022-12-11T03:00:25;56.80;;;23.60;;
71320;SDS011;59118;54.322;18.576;2022-12-11T03:02:52;63.50;;;24.15;;
71320;SDS011;59118;54.322;18.576;2022-12-11T03:05:18;61.88;;;23.13;;
71320;SDS011;59118;54.322;18.576;2022-12-11T03:07:46;65.80;;;24.67;;
71320;SDS011;59118;54.322;18.576;2022-12-11T03:10:14;63.05;;;23.85;;
71320;SDS011;59118;54.322;18.576;2022-12-11T03:12:46;59.35;;;22.90;;
71320;SDS011;59118;54.322;18.576;2022-12-11T03:15:19;61.30;;;23.25;;
71320;SDS011;59118;54.322;18.576;2022-12-11T03:20:43;61.30;;;21.93;;
71320;SDS011;59118;54.322;18.576;2022-12-11T03:23:13;60.13;;;22.48;;
71320;SDS011;59118;54.322;18.576;2022-12-11T03:25:52;57.95;;;23.75;;
71320;SDS011;59118;54.322;18.576;2022-12-11T03:28:39;53.40;;;21.85;;
71320;SDS011;59118;54.322;18.576;2022-12-11T03:31:20;58.60;;;22.52;;
71320;SDS011;59118;54.322;18.576;2022-12-11T03:33:52;54.93;;;22.87;;
71320;SDS011;59118;54.322;18.576;2022-12-11T03:36:23;60.67;;;22.13;;
71320;SDS011;59118;54.322;18.576;2022-12-11T03:39:14;55.03;;;21.73;;
71320;SDS011;59118;54.322;18.576;2022-12-11T03:41:39;52.35;;;21.50;;
71320;SDS011;59118;54.322;18.576;2022-12-11T03:44:06;51.17;;;20.80;;
71320;SDS011;59118;54.322;18.576;2022-12-11T03:46:36;55.40;;;22.07;;
71320;SDS011;59118;54.322;18.576;2022-12-11T03:49:19;56.03;;;22.52;;
71320;SDS011;59118;54.322;18.576;2022-12-11T03:51:47;55.97;;;21.60;;
71320;SDS011;59118;54.322;18.576;2022-12-11T03:54:15;55.42;;;23.13;;
71320;SDS011;59118;54.322;18.576;2022-12-11T03:56:42;54.30;;;21.58;;
71320;SDS011;59118;54.322;18.576;2022-12-11T03:59:11;53.00;;;21.73;;
71320;SDS011;59118;54.322;18.576;2022-12-11T04:01:40;56.30;;;22.75;;
71320;SDS011;59118;54.322;18.576;2022-12-11T04:04:07;56.28;;;22.00;;
71320;SDS011;59118;54.322;18.576;2022-12-11T04:06:33;52.58;;;20.77;;
71320;SDS011;59118;54.322;18.576;2022-12-11T04:09:01;54.22;;;21.70;;
71320;SDS011;59118;54.322;18.576;2022-12-11T04:11:28;49.23;;;20.73;;
71320;SDS011;59118;54.322;18.576;2022-12-11T04:14:07;56.83;;;20.67;;
71320;SDS011;59118;54.322;18.576;2022-12-11T04:16:54;51.17;;;20.55;;
71320;SDS011;59118;54.322;18.576;2022-12-11T04:19:21;52.47;;;21.45;;
71320;SDS011;59118;54.322;18.576;2022-12-11T04:22:10;51.22;;;20.48;;
71320;SDS011;59118;54.322;18.576;2022-12-11T04:24:41;52.50;;;20.17;;
71320;SDS011;59118;54.322;18.576;2022-12-11T04:27:08;59.15;;;23.13;;
71320;SDS011;59118;54.322;18.576;2022-12-11T04:29:34;57.97;;;21.55;;
71320;SDS011;59118;54.322;18.576;2022-12-11T04:32:01;52.25;;;21.50;;
71320;SDS011;59118;54.322;18.576;2022-12-11T04:34:27;58.67;;;22.52;;
71320;SDS011;59118;54.322;18.576;2022-12-11T04:36:54;53.77;;;20.13;;
71320;SDS011;59118;54.322;18.576;2022-12-11T04:39:20;55.40;;;21.27;;
71320;SDS011;59118;54.322;18.576;2022-12-11T04:41:47;50.10;;;20.70;;
71320;SDS011;59118;54.322;18.576;2022-12-11T04:44:13;52.90;;;19.67;;
71320;SDS011;59118;54.322;18.576;2022-12-11T04:46:40;52.28;;;21.10;;
71320;SDS011;59118;54.322;18.576;2022-12-11T04:49:06;47.70;;;18.87;;
71320;SDS011;59118;54.322;18.576;2022-12-11T04:51:33;44.30;;;18.38;;
71320;SDS011;59118;54.322;18.576;2022-12-11T04:53:59;45.58;;;17.77;;
71320;SDS011;59118;54.322;18.576;2022-12-11T04:56:26;44.78;;;18.08;;
71320;SDS011;59118;54.322;18.576;2022-12-11T04:58:55;46.88;;;17.02;;
71320;SDS011;59118;54.322;18.576;2022-12-11T05:01:21;42.60;;;18.00;;
71320;SDS011;59118;54.322;18.576;2022-12-11T05:03:48;42.95;;;17.95;;
71320;SDS011;59118;54.322;18.576;2022-12-11T05:06:15;44.83;;;18.63;;
71320;SDS011;59118;54.322;18.576;2022-12-11T05:08:41;47.50;;;18.35;;
71320;SDS011;59118;54.322;18.576;2022-12-11T05:11:09;48.50;;;19.52;;
71320;SDS011;59118;54.322;18.576;2022-12-11T05:13:37;46.77;;;18.30;;
71320;SDS011;59118;54.322;18.576;2022-12-11T05:16:04;44.90;;;18.30;;
71320;SDS011;59118;54.322;18.576;2022-12-11T05:18:32;43.10;;;18.67;;
71320;SDS011;59118;54.322;18.576;2022-12-11T05:20:59;46.55;;;18.60;;
71320;SDS011;59118;54.322;18.576;2022-12-11T05:23:27;49.35;;;19.88;;
71320;SDS011;59118;54.322;18.576;2022-12-11T05:25:54;46.10;;;18.50;;
71320;SDS011;59118;54.322;18.576;2022-12-11T05:28:23;50.78;;;19.45;;
71320;SDS011;59118;54.322;18.576;2022-12-11T05:31:01;57.60;;;21.88;;
71320;SDS011;59118;54.322;18.576;2022-12-11T05:33:30;54.90;;;20.80;;
71320;SDS011;59118;54.322;18.576;2022-12-11T05:35:56;56.63;;;21.25;;
71320;SDS011;59118;54.322;18.576;2022-12-11T05:38:23;45.87;;;19.60;;
71320;SDS011;59118;54.322;18.576;2022-12-11T05:40:56;51.67;;;21.20;;
71320;SDS011;59118;54.322;18.576;2022-12-11T05:43:24;50.28;;;21.23;;
71320;SDS011;59118;54.322;18.576;2022-12-11T05:45:51;49.22;;;20.05;;
71320;SDS011;59118;54.322;18.576;2022-12-11T05:48:18;45.00;;;19.15;;
71320;SDS011;59118;54.322;18.576;2022-12-11T05:50:54;42.07;;;17.73;;
71320;SDS011;59118;54.322;18.576;2022-12-11T05:53:21;44.10;;;17.27;;
71320;SDS011;59118;54.322;18.576;2022-12-11T05:55:48;37.03;;;15.73;;
71320;SDS011;59118;54.322;18.576;2022-12-11T05:58:15;38.15;;;15.80;;
71320;SDS011;59118;54.322;18.576;2022-12-11T06:00:42;41.20;;;15.93;;
71320;SDS011;59118;54.322;18.576;2022-12-11T06:03:09;35.20;;;14.80;;
71320;SDS011;59118;54.322;18.576;2022-12-11T06:05:39;38.10;;;15.25;;
71320;SDS011;59118;54.322;18.576;2022-12-11T06:08:06;34.25;;;14.00;;
71320;SDS011;59118;54.322;18.576;2022-12-11T06:10:34;31.58;;;13.35;;
71320;SDS011;59118;54.322;18.576;2022-12-11T06:13:09;27.95;;;12.55;;
71320;SDS011;59118;54.322;18.576;2022-12-11T06:15:35;26.07;;;10.63;;
71320;SDS011;59118;54.322;18.576;2022-12-11T06:18:02;24.65;;;10.15;;
71320;SDS011;59118;54.322;18.576;2022-12-11T06:20:32;26.85;;;9.35;;
71320;SDS011;59118;54.322;18.576;2022-12-11T06:22:59;18.60;;;7.85;;
71320;SDS011;59118;54.322;18.576;2022-12-11T06:25:27;21.67;;;8.10;;
71320;SDS011;59118;54.322;18.576;2022-12-11T06:27:53;21.40;;;6.43;;
71320;SDS011;59118;54.322;18.576;2022-12-11T06:30:20;14.60;;;5.43;;
71320;SDS011;59118;54.322;18.576;2022-12-11T06:33:03;10.80;;;4.38;;
71320;SDS011;59118;54.322;18.576;2022-12-11T06:35:30;10.77;;;4.15;;
71320;SDS011;59118;54.322;18.576;2022-12-11T06:37:56;9.30;;;4.07;;
71320;SDS011;59118;54.322;18.576;2022-12-11T06:40:23;10.43;;;3.83;;
71320;SDS011;59118;54.322;18.576;2022-12-11T06:42:49;10.60;;;4.10;;
71320;SDS011;59118;54.322;18.576;2022-12-11T06:45:16;10.02;;;3.95;;
71320;SDS011;59118;54.322;18.576;2022-12-11T06:47:42;7.35;;;3.28;;
71320;SDS011;59118;54.322;18.576;2022-12-11T06:50:09;10.35;;;4.10;;
71320;SDS011;59118;54.322;18.576;2022-12-11T06:52:35;11.03;;;4.03;;
71320;SDS011;59118;54.322;18.576;2022-12-11T06:55:02;11.90;;;3.88;;
71320;SDS011;59118;54.322;18.576;2022-12-11T06:57:28;8.30;;;3.28;;
71320;SDS011;59118;54.322;18.576;2022-12-11T06:59:55;8.43;;;3.72;;
71320;SDS011;59118;54.322;18.576;2022-12-11T07:02:21;8.02;;;3.30;;
71320;SDS011;59118;54.322;18.576;2022-12-11T07:04:48;8.57;;;3.70;;
71320;SDS011;59118;54.322;18.576;2022-12-11T07:07:20;10.00;;;3.92;;
71320;SDS011;59118;54.322;18.576;2022-12-11T07:09:47;8.98;;;3.30;;
71320;SDS011;59118;54.322;18.576;2022-12-11T07:12:13;10.43;;;4.18;;
71320;SDS011;59118;54.322;18.576;2022-12-11T07:14:39;9.80;;;4.00;;
71320;SDS011;59118;54.322;18.576;2022-12-11T07:17:06;9.57;;;3.97;;
71320;SDS011;59118;54.322;18.576;2022-12-11T07:19:32;9.57;;;4.20;;
71320;SDS011;59118;54.322;18.576;2022-12-11T07:21:59;11.43;;;4.38;;
71320;SDS011;59118;54.322;18.576;2022-12-11T07:24:25;9.10;;;3.75;;
71320;SDS011;59118;54.322;18.576;2022-12-11T07:26:52;7.93;;;3.45;;
71320;SDS011;59118;54.322;18.576;2022-12-11T07:29:18;8.30;;;3.57;;
71320;SDS011;59118;54.322;18.576;2022-12-11T07:31:45;8.88;;;3.90;;
71320;SDS011;59118;54.322;18.576;2022-12-11T07:34:13;8.52;;;3.80;;
71320;SDS011;59118;54.322;18.576;2022-12-11T07:36:39;9.07;;;3.28;;
71320;SDS011;59118;54.322;18.576;2022-12-11T07:39:06;9.50;;;3.88;;
71320;SDS011;59118;54.322;18.576;2022-12-11T07:41:34;10.27;;;4.00;;
71320;SDS011;59118;54.322;18.576;2022-12-11T07:44:01;10.52;;;4.05;;
71320;SDS011;59118;54.322;18.576;2022-12-11T07:46:28;12.05;;;4.15;;
71320;SDS011;59118;54.322;18.576;2022-12-11T07:48:55;13.45;;;4.47;;
71320;SDS011;59118;54.322;18.576;2022-12-11T07:51:23;13.27;;;5.05;;
71320;SDS011;59118;54.322;18.576;2022-12-11T07:53:56;13.73;;;5.23;;
71320;SDS011;59118;54.322;18.576;2022-12-11T07:56:25;16.67;;;5.78;;
71320;SDS011;59118;54.322;18.576;2022-12-11T07:58:55;13.18;;;4.07;;
71320;SDS011;59118;54.322;18.576;2022-12-11T08:01:23;13.32;;;5.03;;
71320;SDS011;59118;54.322;18.576;2022-12-11T08:03:52;12.13;;;4.45;;
71320;SDS011;59118;54.322;18.576;2022-12-11T08:06:23;9.30;;;3.40;;
71320;SDS011;59118;54.322;18.576;2022-12-11T08:11:49;8.05;;;3.30;;
71320;SDS011;59118;54.322;18.576;2022-12-11T08:14:19;10.23;;;4.28;;
71320;SDS011;59118;54.322;18.576;2022-12-11T08:16:46;10.63;;;3.90;;
71320;SDS011;59118;54.322;18.576;2022-12-11T08:19:13;11.93;;;4.63;;
71320;SDS011;59118;54.322;18.576;2022-12-11T08:21:41;12.38;;;4.18;;
71320;SDS011;59118;54.322;18.576;2022-12-11T08:24:09;14.45;;;5.95;;
71320;SDS011;59118;54.322;18.576;2022-12-11T08:26:37;16.55;;;7.32;;
71320;SDS011;59118;54.322;18.576;2022-12-11T08:29:03;18.85;;;7.78;;
71320;SDS011;59118;54.322;18.576;2022-12-11T08:31:30;18.03;;;7.73;;
71320;SDS011;59118;54.322;18.576;2022-12-11T08:33:57;21.90;;;8.13;;
71320;SDS011;59118;54.322;18.576;2022-12-11T08:36:24;21.48;;;8.60;;
71320;SDS011;59118;54.322;18.576;2022-12-11T08:38:53;18.98;;;8.52;;
71320;SDS011;59118;54.322;18.576;2022-12-11T08:41:23;20.35;;;8.35;;
71320;SDS011;59118;54.322;18.576;2022-12-11T08:43:54;22.00;;;9.20;;
71320;SDS011;59118;54.322;18.576;2022-12-11T08:46:23;23.50;;;9.52;;
71320;SDS011;59118;54.322;18.576;2022-12-11T08:48:55;21.88;;;8.77;;
71320;SDS011;59118;54.322;18.576;2022-12-11T08:51:24;21.15;;;9.35;;
71320;SDS011;59118;54.322;18.576;2022-12-11T08:53:56;22.38;;;10.05;;
71320;SDS011;59118;54.322;18.576;2022-12-11T08:56:24;19.13;;;8.87;;
71320;SDS011;59118;54.322;18.576;2022-12-11T08:58:52;13.20;;;5.47;;
71320;SDS011;59118;54.322;18.576;2022-12-11T09:01:24;27.88;;;10.57;;
71320;SDS011;59118;54.322;18.576;2022-12-11T09:03:52;21.13;;;9.20;;
71320;SDS011;59118;54.322;18.576;2022-12-11T09:06:20;21.60;;;9.02;;
71320;SDS011;59118;54.322;18.576;2022-12-11T09:08:50;21.60;;;9.27;;
71320;SDS011;59118;54.322;18.576;2022-12-11T09:11:21;20.00;;;8.65;;
71320;SDS011;59118;54.322;18.576;2022-12-11T09:13:54;21.00;;;8.88;;
71320;SDS011;59118;54.322;18.576;2022-12-11T09:16:25;20.02;;;8.45;;
71320;SDS011;59118;54.322;18.576;2022-12-11T09:18:53;19.45;;;8.43;;
71320;SDS011;59118;54.322;18.576;2022-12-11T09:21:22;23.00;;;8.40;;
71320;SDS011;59118;54.322;18.576;2022-12-11T09:23:53;21.08;;;7.63;;
71320;SDS011;59118;54.322;18.576;2022-12-11T09:26:22;18.67;;;7.57;;
71320;SDS011;59118;54.322;18.576;2022-12-11T09:28:49;21.35;;;8.45;;
71320;SDS011;59118;54.322;18.576;2022-12-11T09:31:25;18.80;;;8.80;;
71320;SDS011;59118;54.322;18.576;2022-12-11T09:33:57;19.70;;;8.67;;
71320;SDS011;59118;54.322;18.576;2022-12-11T09:36:42;18.05;;;7.88;;
71320;SDS011;59118;54.322;18.576;2022-12-11T09:39:09;20.90;;;9.15;;
71320;SDS011;59118;54.322;18.576;2022-12-11T09:41:47;21.75;;;8.95;;
71320;SDS011;59118;54.322;18.576;2022-12-11T09:44:42;23.42;;;9.32;;
71320;SDS011;59118;54.322;18.576;2022-12-11T09:47:33;21.67;;;9.33;;
71320;SDS011;59118;54.322;18.576;2022-12-11T09:50:03;18.23;;;8.18;;
71320;SDS011;59118;54.322;18.576;2022-12-11T09:55:45;21.23;;;8.45;;
71320;SDS011;59118;54.322;18.576;2022-12-11T10:17:54;20.17;;;9.18;;
71320;SDS011;59118;54.322;18.576;2022-12-11T10:20:31;28.55;;;10.77;;
71320;SDS011;59118;54.322;18.576;2022-12-11T10:23:08;26.17;;;10.38;;
71320;SDS011;59118;54.322;18.576;2022-12-11T10:25:40;23.90;;;9.38;;
71320;SDS011;59118;54.322;18.576;2022-12-11T10:28:13;15.13;;;6.53;;
71320;SDS011;59118;54.322;18.576;2022-12-11T10:36:34;15.05;;;4.72;;
71320;SDS011;59118;54.322;18.576;2022-12-11T10:39:09;9.90;;;4.40;;
71320;SDS011;59118;54.322;18.576;2022-12-11T10:41:49;10.80;;;4.73;;
71320;SDS011;59118;54.322;18.576;2022-12-11T10:44:23;11.18;;;4.57;;
71320;SDS011;59118;54.322;18.576;2022-12-11T10:47:08;10.65;;;3.70;;
71320;SDS011;59118;54.322;18.576;2022-12-11T10:49:52;14.55;;;4.25;;
71320;SDS011;59118;54.322;18.576;2022-12-11T10:54:57;11.60;;;4.80;;
71320;SDS011;59118;54.322;18.576;2022-12-11T10:57:29;9.27;;;3.70;;
71320;SDS011;59118;54.322;18.576;2022-12-11T10:59:58;12.05;;;4.60;;
71320;SDS011;59118;54.322;18.576;2022-12-11T11:02:35;10.57;;;4.72;;
71320;SDS011;59118;54.322;18.576;2022-12-11T11:05:25;11.68;;;4.88;;
71320;SDS011;59118;54.322;18.576;2022-12-11T11:10:37;11.25;;;4.70;;
71320;SDS011;59118;54.322;18.576;2022-12-11T11:13:03;13.15;;;5.28;;
71320;SDS011;59118;54.322;18.576;2022-12-11T11:15:30;13.82;;;5.00;;
71320;SDS011;59118;54.322;18.576;2022-12-11T11:17:59;11.27;;;5.47;;
71320;SDS011;59118;54.322;18.576;2022-12-11T11:20:34;13.47;;;4.33;;
71320;SDS011;59118;54.322;18.576;2022-12-11T11:23:02;10.30;;;4.63;;
71320;SDS011;59118;54.322;18.576;2022-12-11T11:25:30;11.82;;;4.65;;
71320;SDS011;59118;54.322;18.576;2022-12-11T11:28:02;10.65;;;4.10;;
71320;SDS011;59118;54.322;18.576;2022-12-11T11:30:31;11.23;;;4.13;;
71320;SDS011;59118;54.322;18.576;2022-12-11T11:33:04;12.60;;;4.47;;
71320;SDS011;59118;54.322;18.576;2022-12-11T11:35:50;8.90;;;3.90;;
71320;SDS011;59118;54.322;18.576;2022-12-11T11:41:16;7.30;;;2.95;;
71320;SDS011;59118;54.322;18.576;2022-12-11T11:46:27;5.03;;;2.33;;
71320;SDS011;59118;54.322;18.576;2022-12-11T11:52:00;9.27;;;2.60;;
71320;SDS011;59118;54.322;18.576;2022-12-11T11:58:06;9.73;;;3.17;;
71320;SDS011;59118;54.322;18.576;2022-12-11T12:00:22;9.43;;;3.23;;
71320;SDS011;59118;54.322;18.576;2022-12-11T12:02:59;11.18;;;4.03;;
71320;SDS011;59118;54.322;18.576;2022-12-11T12:08:22;9.55;;;3.72;;
71320;SDS011;59118;54.322;18.576;2022-12-11T12:10:58;10.05;;;3.33;;
71320;SDS011;59118;54.322;18.576;2022-12-11T12:13:31;13.87;;;5.13;;
71320;SDS011;59118;54.322;18.576;2022-12-11T12:16:19;9.02;;;3.20;;
71320;SDS011;59118;54.322;18.576;2022-12-11T12:21:55;9.15;;;3.00;;
71320;SDS011;59118;54.322;18.576;2022-12-11T12:24:32;7.80;;;2.35;;
71320;SDS011;59118;54.322;18.576;2022-12-11T12:30:18;7.65;;;2.03;;
71320;SDS011;59118;54.322;18.576;2022-12-11T12:36:00;5.80;;;2.00;;
71320;SDS011;59118;54.322;18.576;2022-12-11T12:38:39;4.20;;;1.58;;
71320;SDS011;59118;54.322;18.576;2022-12-11T12:41:23;6.10;;;1.60;;
71320;SDS011;59118;54.322;18.576;2022-12-11T12:44:21;5.05;;;1.90;;
71320;SDS011;59118;54.322;18.576;2022-12-11T12:47:04;5.78;;;1.95;;
71320;SDS011;59118;54.322;18.576;2022-12-11T12:49:47;5.63;;;2.08;;
71320;SDS011;59118;54.322;18.576;2022-12-11T12:52:16;6.32;;;2.45;;
71320;SDS011;59118;54.322;18.576;2022-12-11T12:54:53;7.47;;;2.30;;
71320;SDS011;59118;54.322;18.576;2022-12-11T12:58:21;8.98;;;2.55;;
71320;SDS011;59118;54.322;18.576;2022-12-11T13:00:39;8.88;;;3.03;;
71320;SDS011;59118;54.322;18.576;2022-12-11T13:03:20;8.02;;;2.63;;
71320;SDS011;59118;54.322;18.576;2022-12-11T13:08:26;7.63;;;2.30;;
71320;SDS011;59118;54.322;18.576;2022-12-11T13:10:59;5.78;;;2.10;;
71320;SDS011;59118;54.322;18.576;2022-12-11T13:13:32;8.45;;;2.38;;
71320;SDS011;59118;54.322;18.576;2022-12-11T13:16:06;7.57;;;2.25;;
71320;SDS011;59118;54.322;18.576;2022-12-11T13:18:36;8.35;;;2.60;;
71320;SDS011;59118;54.322;18.576;2022-12-11T13:21:24;9.60;;;2.77;;
71320;SDS011;59118;54.322;18.576;2022-12-11T13:24:23;6.05;;;2.20;;
71320;SDS011;59118;54.322;18.576;2022-12-11T13:26:53;7.40;;;2.83;;
71320;SDS011;59118;54.322;18.576;2022-12-11T13:29:33;8.75;;;2.70;;
71320;SDS011;59118;54.322;18.576;2022-12-11T13:32:19;5.93;;;2.30;;
71320;SDS011;59118;54.322;18.576;2022-12-11T13:34:54;10.00;;;3.00;;
71320;SDS011;59118;54.322;18.576;2022-12-11T13:37:41;6.50;;;1.92;;
71320;SDS011;59118;54.322;18.576;2022-12-11T13:40:32;7.00;;;2.00;;
71320;SDS011;59118;54.322;18.576;2022-12-11T13:43:03;6.60;;;2.13;;
71320;SDS011;59118;54.322;18.576;2022-12-11T13:45:42;5.75;;;2.00;;
71320;SDS011;59118;54.322;18.576;2022-12-11T13:51:32;7.65;;;2.13;;
71320;SDS011;59118;54.322;18.576;2022-12-11T13:56:55;6.88;;;2.60;;
71320;SDS011;59118;54.322;18.576;2022-12-11T13:59:39;5.90;;;2.20;;
71320;SDS011;59118;54.322;18.576;2022-12-11T14:04:46;7.07;;;2.17;;
71320;SDS011;59118;54.322;18.576;2022-12-11T14:07:15;6.22;;;2.30;;
71320;SDS011;59118;54.322;18.576;2022-12-11T14:09:47;8.23;;;3.15;;
71320;SDS011;59118;54.322;18.576;2022-12-11T14:12:15;8.30;;;2.55;;
71320;SDS011;59118;54.322;18.576;2022-12-11T14:14:50;6.40;;;2.27;;
71320;SDS011;59118;54.322;18.576;2022-12-11T14:17:26;6.95;;;2.30;;
71320;SDS011;59118;54.322;18.576;2022-12-11T14:19:55;5.78;;;2.30;;
71320;SDS011;59118;54.322;18.576;2022-12-11T14:22:25;12.27;;;4.22;;
71320;SDS011;59118;54.322;18.576;2022-12-11T14:24:56;6.70;;;2.80;;
71320;SDS011;59118;54.322;18.576;2022-12-11T14:27:24;6.90;;;2.63;;
71320;SDS011;59118;54.322;18.576;2022-12-11T14:29:51;7.72;;;2.53;;
71320;SDS011;59118;54.322;18.576;2022-12-11T14:32:29;7.72;;;2.72;;
71320;SDS011;59118;54.322;18.576;2022-12-11T14:34:57;8.73;;;3.00;;
71320;SDS011;59118;54.322;18.576;2022-12-11T14:37:25;6.78;;;2.58;;
71320;SDS011;59118;54.322;18.576;2022-12-11T14:39:58;7.57;;;2.70;;
71320;SDS011;59118;54.322;18.576;2022-12-11T14:42:31;7.13;;;2.60;;
71320;SDS011;59118;54.322;18.576;2022-12-11T14:45:07;9.93;;;2.90;;
71320;SDS011;59118;54.322;18.576;2022-12-11T14:47:38;7.78;;;2.60;;
71320;SDS011;59118;54.322;18.576;2022-12-11T14:50:08;6.43;;;2.65;;
71320;SDS011;59118;54.322;18.576;2022-12-11T14:52:45;7.77;;;2.87;;
71320;SDS011;59118;54.322;18.576;2022-12-11T14:55:27;8.73;;;3.20;;
71320;SDS011;59118;54.322;18.576;2022-12-11T14:57:56;7.30;;;2.72;;
71320;SDS011;59118;54.322;18.576;2022-12-11T15:05:33;8.57;;;2.40;;
71320;SDS011;59118;54.322;18.576;2022-12-11T15:10:39;5.57;;;1.90;;
71320;SDS011;59118;54.322;18.576;2022-12-11T15:13:08;10.20;;;3.75;;
71320;SDS011;59118;54.322;18.576;2022-12-11T15:15:45;6.78;;;2.40;;
71320;SDS011;59118;54.322;18.576;2022-12-11T15:18:17;6.73;;;2.43;;
71320;SDS011;59118;54.322;18.576;2022-12-11T15:20:48;6.35;;;2.38;;
71320;SDS011;59118;54.322;18.576;2022-12-11T15:23:20;6.65;;;2.25;;
71320;SDS011;59118;54.322;18.576;2022-12-11T15:25:50;7.25;;;2.20;;
71320;SDS011;59118;54.322;18.576;2022-12-11T15:28:24;6.82;;;2.08;;
71320;SDS011;59118;54.322;18.576;2022-12-11T15:30:56;8.00;;;2.50;;
71320;SDS011;59118;54.322;18.576;2022-12-11T15:33:25;7.53;;;2.03;;
71320;SDS011;59118;54.322;18.576;2022-12-11T15:36:00;6.45;;;1.95;;
71320;SDS011;59118;54.322;18.576;2022-12-11T15:38:32;5.60;;;1.90;;
71320;SDS011;59118;54.322;18.576;2022-12-11T15:41:08;5.78;;;2.47;;
71320;SDS011;59118;54.322;18.576;2022-12-11T15:43:38;6.03;;;2.23;;
71320;SDS011;59118;54.322;18.576;2022-12-11T15:46:05;5.13;;;2.00;;
71320;SDS011;59118;54.322;18.576;2022-12-11T15:48:32;8.02;;;3.05;;
71320;SDS011;59118;54.322;18.576;2022-12-11T15:50:59;7.57;;;2.78;;
71320;SDS011;59118;54.322;18.576;2022-12-11T15:53:26;6.05;;;2.17;;
71320;SDS011;59118;54.322;18.576;2022-12-11T15:55:52;8.43;;;2.57;;
71320;SDS011;59118;54.322;18.576;2022-12-11T15:58:19;4.68;;;2.00;;
71320;SDS011;59118;54.322;18.576;2022-12-11T16:00:47;7.70;;;2.40;;
71320;SDS011;59118;54.322;18.576;2022-12-11T16:03:14;6.93;;;2.60;;
71320;SDS011;59118;54.322;18.576;2022-12-11T16:05:43;6.03;;;2.50;;
71320;SDS011;59118;54.322;18.576;2022-12-11T16:08:13;7.60;;;2.43;;
71320;SDS011;59118;54.322;18.576;2022-12-11T16:10:42;5.85;;;1.90;;
71320;SDS011;59118;54.322;18.576;2022-12-11T16:13:10;6.18;;;2.00;;